METAR SBMG

2017082212 - METAR SBMG 221200Z 12006KT CAVOK 13/09 Q1022=

Escala PR-FEA

ESCALA - SIMULADOR GA-18

Escala PR-FGM
Powered by ©Kanestech